createdAt,value
2023-04-20T00:02:23.358Z,95454.19
2023-04-20T00:04:55.733Z,95448.41
2023-04-20T00:07:27.420Z,95451.88
2023-04-20T00:09:57.022Z,95450.03
2023-04-20T00:12:26.495Z,95448.28
2023-04-20T00:14:57.374Z,95432.22
2023-04-20T00:17:26.861Z,95432.44
2023-04-20T00:19:56.510Z,95426.75
2023-04-20T00:22:28.222Z,95422.69
2023-04-20T00:24:57.868Z,95422.94
2023-04-20T00:27:27.324Z,95418.41
2023-04-20T00:29:58.123Z,95416.56
2023-04-20T00:32:28.441Z,95409.16
2023-04-20T00:34:58.310Z,95405.25
2023-04-20T00:37:28.534Z,95413.81
2023-04-20T00:39:59.482Z,95402.34
2023-04-20T00:42:28.975Z,95398.66
2023-04-20T00:44:59.882Z,95392.28
2023-04-20T00:47:29.379Z,95386.72
2023-04-20T00:49:58.972Z,95387.53
2023-04-20T00:52:28.923Z,95378.50
2023-04-20T00:55:01.063Z,95377.22
2023-04-20T00:57:31.235Z,95370.88
2023-04-20T01:00:07.824Z,95374.13
2023-04-20T01:02:37.521Z,95374.34
2023-04-20T01:05:10.698Z,95375.63
2023-04-20T01:07:40.172Z,95373.19
2023-04-20T01:10:11.392Z,95366.25
2023-04-20T01:12:42.750Z,95360.09
2023-04-20T01:15:14.514Z,95359.88
2023-04-20T01:17:47.984Z,95359.66
2023-04-20T01:20:17.556Z,95349.59
2023-04-20T01:22:50.922Z,95348.31
2023-04-20T01:25:20.590Z,95344.63
2023-04-20T01:27:50.113Z,95347.84
2023-04-20T01:30:19.542Z,95348.44
2023-04-20T01:32:49.267Z,95346.81
2023-04-20T01:35:18.782Z,95345.78
2023-04-20T01:37:49.634Z,95346.34
2023-04-20T01:40:19.203Z,95340.81
2023-04-20T01:42:48.683Z,95347.75
2023-04-20T01:45:18.301Z,95336.28
2023-04-20T01:47:47.792Z,95334.66
2023-04-20T01:50:17.359Z,95338.13
2023-04-20T01:52:46.837Z,95331.78
2023-04-20T01:55:20.026Z,95324.03
2023-04-20T01:57:49.782Z,95329.34
2023-04-20T02:00:20.993Z,95322.16
2023-04-20T02:02:50.686Z,95323.22
2023-04-20T02:05:20.308Z,95317.88
2023-04-20T02:07:49.721Z,95316.84
2023-04-20T02:10:20.822Z,95315.81
2023-04-20T02:12:51.272Z,95310.25
2023-04-20T02:15:20.699Z,95308.41
2023-04-20T02:17:52.182Z,95315.56
2023-04-20T02:20:22.474Z,95306.56
2023-04-20T02:22:51.915Z,95312.69
2023-04-20T02:25:22.812Z,95317.78
2023-04-20T02:27:52.261Z,95314.31
2023-04-20T02:30:22.469Z,95310.03
2023-04-20T02:32:51.983Z,95305.50
2023-04-20T02:35:21.642Z,95307.94
2023-04-20T02:37:51.320Z,95300.53
2023-04-20T02:40:22.403Z,95297.88
2023-04-20T02:42:51.886Z,95304.22
2023-04-20T02:45:21.826Z,95296.25
2023-04-20T02:47:51.536Z,95297.28
2023-04-20T02:50:21.592Z,95293.34
2023-04-20T02:53:05.733Z,95279.47
2023-04-20T02:55:38.982Z,95282.94
2023-04-20T02:58:20.215Z,95281.09
2023-04-20T13:36:15.840Z,95068.41
2023-04-20T13:38:45.651Z,95070.56
2023-04-20T13:41:15.199Z,95062.25
2023-04-20T13:43:45.339Z,95066.53
2023-04-20T13:46:15.807Z,95065.75
2023-04-20T13:48:45.367Z,95056.09
2023-04-20T13:51:16.301Z,95059.59
2023-04-20T13:53:47.945Z,95055.84
2023-04-20T13:56:17.834Z,95058.53
2023-04-20T13:58:47.469Z,95044.66
2023-04-20T14:01:17.396Z,95026.44
2023-04-20T14:03:48.446Z,95036.88
2023-04-20T14:06:19.580Z,95038.75
2023-04-20T14:08:49.438Z,95040.38
2023-04-20T14:11:18.859Z,95036.63
2023-04-20T14:13:48.526Z,95034.72
2023-04-20T14:16:18.027Z,95042.75
2023-04-20T14:18:47.540Z,95036.91
2023-04-20T14:21:17.206Z,95031.28
2023-04-20T14:23:53.172Z,95041.72
2023-04-20T14:26:22.772Z,95040.41
2023-04-20T14:28:53.138Z,95042.84
2023-04-20T14:31:22.666Z,95038.84
2023-04-20T14:33:52.144Z,95037.53
2023-04-20T14:36:21.763Z,95034.06
2023-04-20T14:38:54.280Z,95033.84
2023-04-20T14:41:26.905Z,95023.69
2023-04-20T14:43:56.439Z,95023.72
2023-04-20T14:46:25.938Z,95020.25
2023-04-20T14:48:55.456Z,95025.91
2023-04-20T14:51:24.970Z,95024.31
2023-04-20T14:53:56.099Z,95035.03
2023-04-20T14:56:25.667Z,95029.97
2023-04-20T14:58:57.146Z,95020.34
2023-04-20T15:01:26.771Z,95027.03
2023-04-20T15:03:56.707Z,95026.75
2023-04-20T15:06:26.990Z,95022.47
2023-04-20T15:08:58.331Z,95027.84
2023-04-20T15:11:27.774Z,95031.31
2023-04-20T15:13:57.202Z,95019.00
2023-04-20T15:16:26.769Z,95023.28
2023-04-20T15:18:56.359Z,95028.91
2023-04-20T15:21:27.059Z,95023.84
2023-04-20T15:23:57.801Z,95016.59
2023-04-20T15:26:27.385Z,95013.38
2023-04-20T15:28:57.585Z,95020.34
2023-04-20T15:31:27.835Z,95039.09
2023-04-20T15:33:59.048Z,95039.88
2023-04-20T15:36:28.826Z,95046.03
2023-04-20T15:38:59.705Z,95040.16
2023-04-20T15:41:29.193Z,95029.69
2023-04-20T15:43:58.685Z,95032.38
2023-04-20T15:46:28.494Z,95032.13
2023-04-20T15:48:58.161Z,95035.59
2023-04-20T15:51:28.017Z,95032.94
2023-04-20T15:53:58.981Z,95023.84
2023-04-20T15:56:28.578Z,95020.59
2023-04-20T15:58:58.107Z,95025.97
2023-04-20T16:01:27.736Z,95027.84
2023-04-20T16:03:57.647Z,95024.34
2023-04-20T16:06:27.473Z,95028.63
2023-04-20T16:08:57.684Z,95022.22
2023-04-20T16:11:28.516Z,95022.47
2023-04-20T16:13:58.888Z,95020.59
2023-04-20T16:16:28.618Z,95012.59
2023-04-20T16:18:58.237Z,95016.59
2023-04-20T16:21:27.933Z,95012.31
2023-04-20T16:23:58.054Z,95014.72
2023-04-20T16:26:29.016Z,95018.19
2023-04-20T16:28:58.639Z,95028.59
2023-04-20T16:31:29.644Z,95023.22
2023-04-20T16:34:00.151Z,95024.53
2023-04-20T16:36:30.018Z,95026.41
2023-04-20T16:39:01.761Z,95033.09
2023-04-20T16:41:32.772Z,95028.25
2023-04-20T16:44:02.318Z,95036.53
2023-04-20T16:46:32.103Z,95044.00
2023-04-20T16:49:01.673Z,95045.38
2023-04-20T16:51:31.417Z,95045.88
2023-04-20T16:54:01.497Z,95038.41
2023-04-20T16:56:32.560Z,95042.44
2023-04-20T16:59:02.064Z,95049.41
2023-04-20T17:01:32.036Z,95053.91
2023-04-20T17:04:02.029Z,95061.91
2023-04-20T17:06:32.004Z,95051.44
2023-04-20T17:09:06.720Z,95047.41
2023-04-20T17:11:39.568Z,95058.38
2023-04-20T17:14:09.989Z,95055.13
2023-04-20T17:16:39.733Z,95056.25
2023-04-20T17:19:09.298Z,95057.78
2023-04-20T17:21:40.420Z,95061.75
2023-04-20T17:24:09.987Z,95049.47
2023-04-20T17:26:40.823Z,95051.63
2023-04-20T17:29:10.318Z,95056.94
2023-04-20T17:31:39.863Z,95062.56
2023-04-20T17:34:10.495Z,95065.50
2023-04-20T17:36:40.159Z,95068.72
2023-04-20T17:39:10.245Z,95070.34
2023-04-20T17:41:41.186Z,95068.22
2023-04-20T17:44:12.191Z,95074.88
2023-04-20T17:46:42.096Z,95070.34
2023-04-20T17:49:11.656Z,95068.16
2023-04-20T17:51:41.117Z,95073.53
2023-04-20T17:54:11.398Z,95078.88
2023-04-20T17:56:42.376Z,95090.09
2023-04-20T17:59:12.780Z,95091.69
2023-04-20T18:01:42.498Z,95101.56
2023-04-20T18:04:12.515Z,95109.88
2023-04-20T18:06:42.098Z,95116.34
2023-04-20T18:09:14.011Z,95127.00
2023-04-20T18:11:44.891Z,95131.06
2023-04-20T18:14:14.481Z,95133.25
2023-04-20T18:16:43.902Z,95130.25
2023-04-20T18:19:13.380Z,95129.72
2023-04-20T18:21:43.140Z,95127.72
2023-04-20T18:24:12.597Z,95122.88
2023-04-20T18:26:42.129Z,95118.59
2023-04-20T18:29:12.920Z,95126.31
2023-04-20T18:31:45.319Z,95127.94
2023-04-20T18:34:16.196Z,95133.03
2023-04-20T18:36:45.880Z,95133.03
2023-04-20T18:39:15.958Z,95140.75
2023-04-20T18:41:45.651Z,95147.72
2023-04-20T18:44:16.658Z,95153.00
2023-04-20T18:46:46.403Z,95155.91
2023-04-20T18:49:15.901Z,95161.03
2023-04-20T18:51:45.335Z,95152.38
2023-04-20T18:54:14.827Z,95155.53
2023-04-20T18:56:44.375Z,95149.53
2023-04-20T18:59:15.489Z,95161.88
2023-04-20T19:01:45.008Z,95169.66
2023-04-20T19:04:14.682Z,95163.69
2023-04-20T19:06:44.308Z,95156.41
2023-04-20T19:09:13.873Z,95169.84
2023-04-20T19:11:44.663Z,95174.63
2023-04-20T19:14:15.590Z,95181.34
2023-04-20T19:16:45.250Z,95182.63
2023-04-20T19:19:14.979Z,95181.50
2023-04-20T19:21:44.558Z,95185.88
2023-04-20T19:24:14.214Z,95188.28
2023-04-20T19:26:44.160Z,95195.44
2023-04-20T19:29:15.036Z,95197.28
2023-04-20T19:31:44.876Z,95203.69
2023-04-20T19:34:15.197Z,95205.63
2023-04-20T19:36:44.801Z,95209.84
2023-04-20T19:39:14.819Z,95216.06
2023-04-20T19:41:45.390Z,95216.00
2023-04-20T19:44:16.335Z,95215.91
2023-04-20T19:46:46.017Z,95221.56
2023-04-20T19:49:15.660Z,95218.81
2023-04-20T19:51:45.276Z,95228.84
2023-04-20T19:54:16.625Z,95230.31
2023-04-20T19:56:46.175Z,95219.16
2023-04-20T19:59:17.264Z,95222.66
2023-04-20T20:01:48.830Z,95218.06
2023-04-20T20:04:20.461Z,95217.69
2023-04-20T20:06:50.760Z,95220.63
2023-04-20T20:09:23.208Z,95222.44
2023-04-20T20:11:53.695Z,95220.13
2023-04-20T20:14:24.659Z,95225.09
2023-04-20T20:16:54.357Z,95225.69
2023-04-20T20:19:23.959Z,95221.41
2023-04-20T20:21:53.625Z,95219.56
2023-04-20T20:24:25.155Z,95220.50
2023-04-20T20:26:54.645Z,95209.75
2023-04-20T20:29:25.632Z,95214.78
2023-04-20T20:31:55.637Z,95225.75
2023-04-20T20:34:25.151Z,95219.63
2023-04-20T20:36:54.624Z,95228.53
2023-04-20T20:39:24.185Z,95229.00
2023-04-20T20:41:53.995Z,95228.94
2023-04-20T20:44:27.902Z,95227.06
2023-04-20T20:46:57.492Z,95215.66
2023-04-20T20:49:27.248Z,95227.31
2023-04-20T20:51:56.707Z,95225.53
2023-04-20T20:54:26.335Z,95227.59
2023-04-20T20:56:55.968Z,95230.00
2023-04-20T20:59:26.769Z,95223.91
2023-04-20T21:01:56.242Z,95230.00
2023-04-20T21:04:25.860Z,95237.47
2023-04-20T21:06:55.457Z,95241.69
2023-04-20T21:09:24.848Z,95246.28
2023-04-20T21:11:56.434Z,95249.50
2023-04-20T21:14:27.423Z,95246.78
2023-04-20T21:16:57.051Z,95239.38
2023-04-20T21:19:26.748Z,95242.00
2023-04-20T21:21:56.217Z,95239.63
2023-04-20T21:24:26.471Z,95228.91
2023-04-20T21:26:56.468Z,95226.16
2023-04-20T21:29:27.409Z,95222.94
2023-04-20T21:31:56.933Z,95219.19
2023-04-20T21:34:27.008Z,95230.13
2023-04-20T21:37:03.352Z,95233.59
2023-04-20T21:39:33.363Z,95238.69
2023-04-20T21:42:03.358Z,95240.63
2023-04-20T21:44:34.171Z,95225.59
2023-04-20T21:47:03.606Z,95225.53
2023-04-20T21:49:33.105Z,95219.06
2023-04-20T21:52:02.567Z,95221.16
2023-04-20T21:54:34.524Z,95213.97
2023-04-20T21:57:04.530Z,95216.88
2023-04-20T21:59:35.536Z,95214.44
2023-04-20T22:02:05.361Z,95224.88
2023-04-20T22:04:35.030Z,95241.13
2023-04-20T22:07:04.690Z,95237.41
2023-04-20T22:09:34.165Z,95240.91
2023-04-20T22:12:05.152Z,95231.03
2023-04-20T22:14:36.123Z,95225.66
2023-04-20T22:17:05.597Z,95223.50
2023-04-20T22:19:35.029Z,95219.78
2023-04-20T22:22:04.573Z,95226.41
2023-04-20T22:24:34.376Z,95219.75
2023-04-20T22:27:04.725Z,95216.81
2023-04-20T22:29:35.697Z,95232.56
2023-04-20T22:32:05.578Z,95225.06
2023-04-20T22:34:49.420Z,95228.00
2023-04-20T22:37:19.797Z,95217.06
2023-04-20T22:39:49.229Z,95217.88
2023-04-20T22:42:18.717Z,95219.50
2023-04-20T22:44:49.605Z,95211.72
2023-04-20T22:47:19.118Z,95222.69
2023-04-20T22:49:49.047Z,95212.03
2023-04-20T22:52:18.486Z,95207.75
2023-04-20T22:54:48.843Z,95212.28
2023-04-20T22:57:19.223Z,95213.88
2023-04-20T22:59:50.040Z,95213.06
2023-04-20T23:02:19.581Z,95212.03
2023-04-20T23:04:49.140Z,95212.03
2023-04-20T23:07:19.507Z,95209.34
2023-04-20T23:09:49.194Z,95227.78
2023-04-20T23:12:20.700Z,95210.16
2023-04-20T23:14:51.616Z,95218.97
2023-04-20T23:17:21.129Z,95215.50
2023-04-20T23:19:50.981Z,95217.38
2023-04-20T23:22:20.668Z,95224.06
2023-04-20T23:24:50.095Z,95225.38
2023-04-20T23:27:19.529Z,95217.38
2023-04-20T23:29:50.372Z,95220.84
2023-04-20T23:32:19.907Z,95222.69
2023-04-20T23:34:49.326Z,95224.31
2023-04-20T23:37:18.971Z,95217.38
2023-04-20T23:39:48.410Z,95220.84
2023-04-20T23:42:17.874Z,95216.06
2023-04-20T23:44:47.441Z,95213.06
2023-04-20T23:47:18.240Z,95209.63
2023-04-20T23:49:47.779Z,95201.63
2023-04-20T23:52:17.427Z,95203.47
2023-04-20T23:54:46.955Z,95199.44
2023-04-20T23:57:16.517Z,95194.91
2023-04-20T23:59:46.260Z,95195.72
